sensor_id;sensor_type;location;lat;lon;timestamp;P1;durP1;ratioP1;P2;durP2;ratioP2
69542;SDS011;56762;49.494;11.768;2023-04-24T00:00:54;1.83;;;0.85;;
69542;SDS011;56762;49.494;11.768;2023-04-24T00:03:23;2.33;;;0.80;;
69542;SDS011;56762;49.494;11.768;2023-04-24T00:05:53;1.95;;;0.70;;
69542;SDS011;56762;49.494;11.768;2023-04-24T00:08:21;1.40;;;0.60;;
69542;SDS011;56762;49.494;11.768;2023-04-24T00:10:50;2.60;;;0.87;;
69542;SDS011;56762;49.494;11.768;2023-04-24T00:13:19;3.17;;;0.80;;
69542;SDS011;56762;49.494;11.768;2023-04-24T00:15:47;1.88;;;0.70;;
69542;SDS011;56762;49.494;11.768;2023-04-24T00:18:15;1.67;;;0.40;;
69542;SDS011;56762;49.494;11.768;2023-04-24T00:20:43;2.90;;;0.90;;
69542;SDS011;56762;49.494;11.768;2023-04-24T00:23:13;2.80;;;0.60;;
69542;SDS011;56762;49.494;11.768;2023-04-24T00:25:40;1.70;;;0.60;;
69542;SDS011;56762;49.494;11.768;2023-04-24T00:28:08;2.83;;;0.60;;
69542;SDS011;56762;49.494;11.768;2023-04-24T00:30:36;3.30;;;0.60;;
69542;SDS011;56762;49.494;11.768;2023-04-24T00:33:04;2.83;;;0.80;;
69542;SDS011;56762;49.494;11.768;2023-04-24T00:35:33;2.33;;;0.80;;
69542;SDS011;56762;49.494;11.768;2023-04-24T00:38:00;2.38;;;0.80;;
69542;SDS011;56762;49.494;11.768;2023-04-24T00:40:30;2.13;;;0.73;;
69542;SDS011;56762;49.494;11.768;2023-04-24T00:43:00;2.33;;;0.75;;
69542;SDS011;56762;49.494;11.768;2023-04-24T00:45:28;1.98;;;0.88;;
69542;SDS011;56762;49.494;11.768;2023-04-24T00:47:57;2.57;;;0.80;;
69542;SDS011;56762;49.494;11.768;2023-04-24T00:50:25;3.45;;;0.90;;
69542;SDS011;56762;49.494;11.768;2023-04-24T00:52:54;2.42;;;1.15;;
69542;SDS011;56762;49.494;11.768;2023-04-24T00:55:22;3.00;;;1.00;;
69542;SDS011;56762;49.494;11.768;2023-04-24T00:57:51;3.33;;;1.08;;
69542;SDS011;56762;49.494;11.768;2023-04-24T01:00:19;2.87;;;1.23;;
69542;SDS011;56762;49.494;11.768;2023-04-24T01:02:47;3.30;;;0.80;;
69542;SDS011;56762;49.494;11.768;2023-04-24T01:05:18;2.83;;;0.98;;
69542;SDS011;56762;49.494;11.768;2023-04-24T01:07:46;2.15;;;1.02;;
69542;SDS011;56762;49.494;11.768;2023-04-24T01:10:15;3.45;;;1.40;;
69542;SDS011;56762;49.494;11.768;2023-04-24T01:12:44;2.90;;;0.70;;
69542;SDS011;56762;49.494;11.768;2023-04-24T01:15:14;1.40;;;0.60;;
69542;SDS011;56762;49.494;11.768;2023-04-24T01:17:42;2.45;;;0.40;;
69542;SDS011;56762;49.494;11.768;2023-04-24T01:20:10;3.13;;;0.90;;
69542;SDS011;56762;49.494;11.768;2023-04-24T01:22:39;1.50;;;0.60;;
69542;SDS011;56762;49.494;11.768;2023-04-24T01:25:08;2.07;;;1.00;;
69542;SDS011;56762;49.494;11.768;2023-04-24T01:27:36;2.55;;;0.90;;
69542;SDS011;56762;49.494;11.768;2023-04-24T01:30:05;2.65;;;0.88;;
69542;SDS011;56762;49.494;11.768;2023-04-24T01:32:34;2.92;;;1.15;;
69542;SDS011;56762;49.494;11.768;2023-04-24T01:35:03;2.42;;;1.02;;
69542;SDS011;56762;49.494;11.768;2023-04-24T01:37:31;2.13;;;1.00;;
69542;SDS011;56762;49.494;11.768;2023-04-24T01:40:01;2.67;;;0.98;;
69542;SDS011;56762;49.494;11.768;2023-04-24T01:42:30;2.90;;;1.00;;
69542;SDS011;56762;49.494;11.768;2023-04-24T01:44:58;2.28;;;0.80;;
69542;SDS011;56762;49.494;11.768;2023-04-24T01:47:27;3.00;;;0.93;;
69542;SDS011;56762;49.494;11.768;2023-04-24T01:49:55;2.37;;;0.97;;
69542;SDS011;56762;49.494;11.768;2023-04-24T01:52:23;3.50;;;1.20;;
69542;SDS011;56762;49.494;11.768;2023-04-24T01:54:52;15.15;;;5.93;;
69542;SDS011;56762;49.494;11.768;2023-04-24T01:57:21;11.05;;;4.15;;
69542;SDS011;56762;49.494;11.768;2023-04-24T01:59:49;63.67;;;22.90;;
69542;SDS011;56762;49.494;11.768;2023-04-24T02:02:18;21.77;;;8.40;;
69542;SDS011;56762;49.494;11.768;2023-04-24T02:04:47;43.35;;;15.25;;
69542;SDS011;56762;49.494;11.768;2023-04-24T02:07:15;58.22;;;19.40;;
69542;SDS011;56762;49.494;11.768;2023-04-24T02:09:43;32.03;;;10.50;;
69542;SDS011;56762;49.494;11.768;2023-04-24T02:12:11;13.23;;;4.45;;
69542;SDS011;56762;49.494;11.768;2023-04-24T02:14:40;4.80;;;2.10;;
69542;SDS011;56762;49.494;11.768;2023-04-24T02:17:09;3.92;;;1.70;;
69542;SDS011;56762;49.494;11.768;2023-04-24T02:19:39;3.95;;;1.50;;
69542;SDS011;56762;49.494;11.768;2023-04-24T02:22:08;4.45;;;2.20;;
69542;SDS011;56762;49.494;11.768;2023-04-24T02:24:36;5.80;;;2.13;;
69542;SDS011;56762;49.494;11.768;2023-04-24T02:27:04;4.60;;;1.83;;
69542;SDS011;56762;49.494;11.768;2023-04-24T02:29:33;3.55;;;1.60;;
69542;SDS011;56762;49.494;11.768;2023-04-24T02:34:37;3.72;;;1.58;;
69542;SDS011;56762;49.494;11.768;2023-04-24T02:37:06;4.20;;;1.40;;
69542;SDS011;56762;49.494;11.768;2023-04-24T02:39:35;4.20;;;1.90;;
69542;SDS011;56762;49.494;11.768;2023-04-24T02:42:03;5.60;;;3.00;;
69542;SDS011;56762;49.494;11.768;2023-04-24T02:44:32;4.22;;;2.50;;
69542;SDS011;56762;49.494;11.768;2023-04-24T02:47:00;3.92;;;2.10;;
69542;SDS011;56762;49.494;11.768;2023-04-24T02:49:28;7.05;;;3.00;;
69542;SDS011;56762;49.494;11.768;2023-04-24T02:51:58;5.73;;;2.73;;
69542;SDS011;56762;49.494;11.768;2023-04-24T02:54:26;4.30;;;2.25;;
69542;SDS011;56762;49.494;11.768;2023-04-24T02:56:53;4.95;;;2.67;;
69542;SDS011;56762;49.494;11.768;2023-04-24T02:59:23;4.25;;;2.25;;
69542;SDS011;56762;49.494;11.768;2023-04-24T03:01:50;3.78;;;1.80;;
69542;SDS011;56762;49.494;11.768;2023-04-24T03:04:18;3.40;;;1.40;;
69542;SDS011;56762;49.494;11.768;2023-04-24T03:06:49;4.15;;;1.42;;
69542;SDS011;56762;49.494;11.768;2023-04-24T03:09:20;3.90;;;1.20;;
69542;SDS011;56762;49.494;11.768;2023-04-24T03:11:49;4.78;;;2.00;;
69542;SDS011;56762;49.494;11.768;2023-04-24T03:14:18;4.55;;;1.27;;
69542;SDS011;56762;49.494;11.768;2023-04-24T03:16:46;4.33;;;1.00;;
69542;SDS011;56762;49.494;11.768;2023-04-24T03:19:14;3.17;;;0.80;;
69542;SDS011;56762;49.494;11.768;2023-04-24T03:21:41;3.00;;;1.30;;
69542;SDS011;56762;49.494;11.768;2023-04-24T03:24:10;4.65;;;1.20;;
69542;SDS011;56762;49.494;11.768;2023-04-24T03:26:39;2.40;;;1.05;;
69542;SDS011;56762;49.494;11.768;2023-04-24T03:29:07;3.00;;;1.03;;
69542;SDS011;56762;49.494;11.768;2023-04-24T03:31:35;4.15;;;1.02;;
69542;SDS011;56762;49.494;11.768;2023-04-24T03:34:04;2.90;;;0.98;;
69542;SDS011;56762;49.494;11.768;2023-04-24T03:36:33;2.10;;;0.95;;
69542;SDS011;56762;49.494;11.768;2023-04-24T03:39:02;2.90;;;0.63;;
69542;SDS011;56762;49.494;11.768;2023-04-24T03:41:30;2.00;;;0.77;;
69542;SDS011;56762;49.494;11.768;2023-04-24T03:43:59;1.50;;;0.63;;
69542;SDS011;56762;49.494;11.768;2023-04-24T03:46:27;2.67;;;0.60;;
69542;SDS011;56762;49.494;11.768;2023-04-24T03:48:56;1.58;;;0.68;;
69542;SDS011;56762;49.494;11.768;2023-04-24T03:51:24;1.48;;;0.63;;
69542;SDS011;56762;49.494;11.768;2023-04-24T03:53:54;1.60;;;0.50;;
69542;SDS011;56762;49.494;11.768;2023-04-24T03:56:22;2.83;;;0.77;;
69542;SDS011;56762;49.494;11.768;2023-04-24T03:58:50;2.65;;;0.70;;
69542;SDS011;56762;49.494;11.768;2023-04-24T04:01:19;1.77;;;0.60;;
69542;SDS011;56762;49.494;11.768;2023-04-24T04:03:47;2.22;;;0.68;;
69542;SDS011;56762;49.494;11.768;2023-04-24T04:06:15;1.67;;;0.50;;
69542;SDS011;56762;49.494;11.768;2023-04-24T04:08:43;2.90;;;0.80;;
69542;SDS011;56762;49.494;11.768;2023-04-24T04:11:10;2.28;;;0.50;;
69542;SDS011;56762;49.494;11.768;2023-04-24T04:13:38;1.85;;;0.80;;
69542;SDS011;56762;49.494;11.768;2023-04-24T04:16:06;2.22;;;0.80;;
69542;SDS011;56762;49.494;11.768;2023-04-24T04:18:37;1.93;;;0.70;;
69542;SDS011;56762;49.494;11.768;2023-04-24T04:21:05;1.50;;;0.60;;
69542;SDS011;56762;49.494;11.768;2023-04-24T04:23:33;1.95;;;0.70;;
69542;SDS011;56762;49.494;11.768;2023-04-24T04:26:01;2.08;;;0.85;;
69542;SDS011;56762;49.494;11.768;2023-04-24T04:28:29;2.42;;;1.10;;
69542;SDS011;56762;49.494;11.768;2023-04-24T04:30:57;2.87;;;1.10;;
69542;SDS011;56762;49.494;11.768;2023-04-24T04:33:25;2.90;;;1.30;;
69542;SDS011;56762;49.494;11.768;2023-04-24T04:35:55;6.20;;;1.40;;
69542;SDS011;56762;49.494;11.768;2023-04-24T04:38:23;5.47;;;1.73;;
69542;SDS011;56762;49.494;11.768;2023-04-24T04:40:53;5.47;;;1.73;;
69542;SDS011;56762;49.494;11.768;2023-04-24T04:43:22;2.80;;;1.37;;
69542;SDS011;56762;49.494;11.768;2023-04-24T04:45:51;4.38;;;1.58;;
69542;SDS011;56762;49.494;11.768;2023-04-24T04:48:21;3.53;;;1.48;;
69542;SDS011;56762;49.494;11.768;2023-04-24T04:50:48;3.03;;;1.42;;
69542;SDS011;56762;49.494;11.768;2023-04-24T04:53:17;3.65;;;1.58;;
69542;SDS011;56762;49.494;11.768;2023-04-24T04:55:45;5.13;;;1.80;;
69542;SDS011;56762;49.494;11.768;2023-04-24T04:58:14;4.95;;;2.05;;
69542;SDS011;56762;49.494;11.768;2023-04-24T05:00:42;3.67;;;1.90;;
69542;SDS011;56762;49.494;11.768;2023-04-24T05:03:10;4.05;;;1.88;;
69542;SDS011;56762;49.494;11.768;2023-04-24T05:05:46;3.70;;;2.45;;
69542;SDS011;56762;49.494;11.768;2023-04-24T05:08:13;3.70;;;2.03;;
69542;SDS011;56762;49.494;11.768;2023-04-24T05:10:53;4.25;;;2.00;;
69542;SDS011;56762;49.494;11.768;2023-04-24T05:13:22;4.10;;;2.30;;
69542;SDS011;56762;49.494;11.768;2023-04-24T05:16:05;2.95;;;1.70;;
69542;SDS011;56762;49.494;11.768;2023-04-24T05:18:33;3.78;;;1.90;;
69542;SDS011;56762;49.494;11.768;2023-04-24T05:21:00;3.17;;;1.70;;
69542;SDS011;56762;49.494;11.768;2023-04-24T05:23:28;6.47;;;2.63;;
69542;SDS011;56762;49.494;11.768;2023-04-24T05:25:58;3.85;;;2.15;;
69542;SDS011;56762;49.494;11.768;2023-04-24T05:28:25;2.92;;;0.90;;
69542;SDS011;56762;49.494;11.768;2023-04-24T05:30:54;2.97;;;1.20;;
69542;SDS011;56762;49.494;11.768;2023-04-24T05:33:23;3.00;;;1.10;;
69542;SDS011;56762;49.494;11.768;2023-04-24T05:35:50;2.78;;;1.20;;
69542;SDS011;56762;49.494;11.768;2023-04-24T05:38:18;3.17;;;1.02;;
69542;SDS011;56762;49.494;11.768;2023-04-24T05:40:46;3.20;;;1.40;;
69542;SDS011;56762;49.494;11.768;2023-04-24T05:43:15;4.05;;;1.70;;
69542;SDS011;56762;49.494;11.768;2023-04-24T05:45:43;4.27;;;1.70;;
69542;SDS011;56762;49.494;11.768;2023-04-24T05:48:10;3.67;;;1.45;;
69542;SDS011;56762;49.494;11.768;2023-04-24T05:50:38;3.90;;;1.27;;
69542;SDS011;56762;49.494;11.768;2023-04-24T05:53:06;6.00;;;2.03;;
69542;SDS011;56762;49.494;11.768;2023-04-24T05:55:34;4.63;;;1.88;;
69542;SDS011;56762;49.494;11.768;2023-04-24T05:58:02;5.00;;;2.10;;
69542;SDS011;56762;49.494;11.768;2023-04-24T06:00:31;3.63;;;1.50;;
69542;SDS011;56762;49.494;11.768;2023-04-24T06:03:00;3.22;;;1.33;;
69542;SDS011;56762;49.494;11.768;2023-04-24T06:05:30;3.45;;;1.63;;
69542;SDS011;56762;49.494;11.768;2023-04-24T06:07:58;3.17;;;1.50;;
69542;SDS011;56762;49.494;11.768;2023-04-24T06:10:25;4.03;;;1.50;;
69542;SDS011;56762;49.494;11.768;2023-04-24T06:12:53;3.67;;;1.63;;
69542;SDS011;56762;49.494;11.768;2023-04-24T06:15:22;2.85;;;1.40;;
69542;SDS011;56762;49.494;11.768;2023-04-24T06:17:51;2.63;;;1.23;;
69542;SDS011;56762;49.494;11.768;2023-04-24T06:20:19;3.58;;;1.50;;
69542;SDS011;56762;49.494;11.768;2023-04-24T06:22:47;3.63;;;1.20;;
69542;SDS011;56762;49.494;11.768;2023-04-24T06:25:14;3.03;;;1.08;;
69542;SDS011;56762;49.494;11.768;2023-04-24T06:27:42;3.38;;;1.02;;
69542;SDS011;56762;49.494;11.768;2023-04-24T06:30:10;2.80;;;1.10;;
69542;SDS011;56762;49.494;11.768;2023-04-24T06:32:39;4.30;;;1.40;;
69542;SDS011;56762;49.494;11.768;2023-04-24T06:35:09;2.73;;;1.20;;
69542;SDS011;56762;49.494;11.768;2023-04-24T06:37:38;4.95;;;1.20;;
69542;SDS011;56762;49.494;11.768;2023-04-24T06:40:07;2.92;;;1.02;;
69542;SDS011;56762;49.494;11.768;2023-04-24T06:42:35;2.10;;;0.93;;
69542;SDS011;56762;49.494;11.768;2023-04-24T06:45:03;3.25;;;1.20;;
69542;SDS011;56762;49.494;11.768;2023-04-24T06:47:32;2.93;;;1.00;;
69542;SDS011;56762;49.494;11.768;2023-04-24T06:49:59;2.88;;;0.70;;
69542;SDS011;56762;49.494;11.768;2023-04-24T06:52:28;3.72;;;1.02;;
69542;SDS011;56762;49.494;11.768;2023-04-24T06:55:00;2.58;;;0.60;;
69542;SDS011;56762;49.494;11.768;2023-04-24T06:57:28;1.85;;;0.60;;
69542;SDS011;56762;49.494;11.768;2023-04-24T06:59:56;1.60;;;0.60;;
69542;SDS011;56762;49.494;11.768;2023-04-24T07:02:24;1.63;;;0.30;;
69542;SDS011;56762;49.494;11.768;2023-04-24T07:04:52;3.15;;;0.47;;
69542;SDS011;56762;49.494;11.768;2023-04-24T07:07:20;2.58;;;0.45;;
69542;SDS011;56762;49.494;11.768;2023-04-24T07:09:52;1.52;;;0.40;;
69542;SDS011;56762;49.494;11.768;2023-04-24T07:12:20;3.33;;;0.90;;
69542;SDS011;56762;49.494;11.768;2023-04-24T07:14:48;2.28;;;0.80;;
69542;SDS011;56762;49.494;11.768;2023-04-24T07:17:15;2.22;;;0.40;;
69542;SDS011;56762;49.494;11.768;2023-04-24T07:19:43;3.58;;;0.55;;
69542;SDS011;56762;49.494;11.768;2023-04-24T07:22:11;2.35;;;0.40;;
69542;SDS011;56762;49.494;11.768;2023-04-24T07:24:43;2.20;;;0.47;;
69542;SDS011;56762;49.494;11.768;2023-04-24T07:27:12;1.10;;;0.30;;
69542;SDS011;56762;49.494;11.768;2023-04-24T07:29:41;2.50;;;0.45;;
69542;SDS011;56762;49.494;11.768;2023-04-24T07:32:09;2.10;;;0.68;;
69542;SDS011;56762;49.494;11.768;2023-04-24T07:34:37;2.10;;;0.60;;
69542;SDS011;56762;49.494;11.768;2023-04-24T07:37:05;1.27;;;0.20;;
69542;SDS011;56762;49.494;11.768;2023-04-24T07:39:32;2.85;;;0.52;;
69542;SDS011;56762;49.494;11.768;2023-04-24T07:42:00;2.40;;;0.60;;
69542;SDS011;56762;49.494;11.768;2023-04-24T07:44:29;2.47;;;0.73;;
69542;SDS011;56762;49.494;11.768;2023-04-24T07:46:58;2.20;;;0.60;;
69542;SDS011;56762;49.494;11.768;2023-04-24T07:49:26;2.33;;;0.60;;
69542;SDS011;56762;49.494;11.768;2023-04-24T07:51:54;2.00;;;0.30;;
69542;SDS011;56762;49.494;11.768;2023-04-24T07:54:22;2.47;;;0.50;;
69542;SDS011;56762;49.494;11.768;2023-04-24T07:56:49;1.92;;;0.40;;
69542;SDS011;56762;49.494;11.768;2023-04-24T07:59:17;1.20;;;0.50;;
69542;SDS011;56762;49.494;11.768;2023-04-24T08:01:47;1.30;;;0.20;;
69542;SDS011;56762;49.494;11.768;2023-04-24T08:04:14;1.48;;;0.30;;
69542;SDS011;56762;49.494;11.768;2023-04-24T08:06:44;1.45;;;0.40;;
69542;SDS011;56762;49.494;11.768;2023-04-24T08:09:11;1.73;;;0.38;;
69542;SDS011;56762;49.494;11.768;2023-04-24T08:11:39;1.85;;;0.28;;
69542;SDS011;56762;49.494;11.768;2023-04-24T08:14:07;6.33;;;0.63;;
69542;SDS011;56762;49.494;11.768;2023-04-24T08:16:35;1.58;;;0.60;;
69542;SDS011;56762;49.494;11.768;2023-04-24T08:19:04;1.48;;;0.50;;
69542;SDS011;56762;49.494;11.768;2023-04-24T08:21:32;1.20;;;0.30;;
69542;SDS011;56762;49.494;11.768;2023-04-24T08:23:59;2.72;;;0.60;;
69542;SDS011;56762;49.494;11.768;2023-04-24T08:26:31;2.40;;;1.13;;
69542;SDS011;56762;49.494;11.768;2023-04-24T08:28:58;1.83;;;0.32;;
69542;SDS011;56762;49.494;11.768;2023-04-24T08:31:27;1.55;;;0.50;;
69542;SDS011;56762;49.494;11.768;2023-04-24T08:33:54;1.88;;;0.43;;
69542;SDS011;56762;49.494;11.768;2023-04-24T08:36:24;0.80;;;0.20;;
69542;SDS011;56762;49.494;11.768;2023-04-24T08:39:09;1.73;;;0.40;;
69542;SDS011;56762;49.494;11.768;2023-04-24T08:41:36;1.00;;;0.30;;
69542;SDS011;56762;49.494;11.768;2023-04-24T08:44:05;1.48;;;0.50;;
69542;SDS011;56762;49.494;11.768;2023-04-24T08:46:35;2.22;;;0.30;;
69542;SDS011;56762;49.494;11.768;2023-04-24T08:49:04;1.85;;;0.30;;
69542;SDS011;56762;49.494;11.768;2023-04-24T08:51:33;1.47;;;0.60;;
69542;SDS011;56762;49.494;11.768;2023-04-24T08:54:04;2.65;;;0.50;;
69542;SDS011;56762;49.494;11.768;2023-04-24T08:56:33;1.67;;;0.60;;
69542;SDS011;56762;49.494;11.768;2023-04-24T08:59:05;3.05;;;0.70;;
69542;SDS011;56762;49.494;11.768;2023-04-24T09:01:33;2.83;;;0.47;;
69542;SDS011;56762;49.494;11.768;2023-04-24T09:04:02;3.40;;;0.40;;
69542;SDS011;56762;49.494;11.768;2023-04-24T09:06:31;1.40;;;0.50;;
69542;SDS011;56762;49.494;11.768;2023-04-24T09:09:01;1.67;;;0.40;;
69542;SDS011;56762;49.494;11.768;2023-04-24T09:11:30;1.42;;;0.50;;
69542;SDS011;56762;49.494;11.768;2023-04-24T09:13:58;2.90;;;0.50;;
69542;SDS011;56762;49.494;11.768;2023-04-24T09:16:27;1.20;;;0.40;;
69542;SDS011;56762;49.494;11.768;2023-04-24T09:18:56;1.85;;;0.70;;
69542;SDS011;56762;49.494;11.768;2023-04-24T09:21:24;3.22;;;0.73;;
69542;SDS011;56762;49.494;11.768;2023-04-24T09:24:00;2.15;;;0.80;;
69542;SDS011;56762;49.494;11.768;2023-04-24T09:26:29;2.42;;;0.57;;
69542;SDS011;56762;49.494;11.768;2023-04-24T09:28:59;2.63;;;0.80;;
69542;SDS011;56762;49.494;11.768;2023-04-24T09:31:28;2.20;;;0.50;;
69542;SDS011;56762;49.494;11.768;2023-04-24T09:33:56;2.90;;;0.60;;
69542;SDS011;56762;49.494;11.768;2023-04-24T09:36:28;2.20;;;0.85;;
69542;SDS011;56762;49.494;11.768;2023-04-24T09:39:00;1.83;;;0.70;;
69542;SDS011;56762;49.494;11.768;2023-04-24T09:41:31;3.10;;;1.03;;
69542;SDS011;56762;49.494;11.768;2023-04-24T09:44:09;2.95;;;0.65;;
69542;SDS011;56762;49.494;11.768;2023-04-24T09:46:40;1.80;;;0.50;;
69542;SDS011;56762;49.494;11.768;2023-04-24T09:49:09;3.28;;;0.85;;
69542;SDS011;56762;49.494;11.768;2023-04-24T09:51:38;1.25;;;0.50;;
69542;SDS011;56762;49.494;11.768;2023-04-24T09:54:13;1.60;;;0.70;;
69542;SDS011;56762;49.494;11.768;2023-04-24T09:56:43;1.40;;;0.50;;
69542;SDS011;56762;49.494;11.768;2023-04-24T09:59:13;2.08;;;0.60;;
69542;SDS011;56762;49.494;11.768;2023-04-24T10:01:41;2.22;;;0.75;;
69542;SDS011;56762;49.494;11.768;2023-04-24T10:04:17;1.30;;;0.70;;
69542;SDS011;56762;49.494;11.768;2023-04-24T10:06:47;2.20;;;0.60;;
69542;SDS011;56762;49.494;11.768;2023-04-24T10:09:18;1.10;;;0.50;;
69542;SDS011;56762;49.494;11.768;2023-04-24T10:11:47;1.27;;;0.52;;
69542;SDS011;56762;49.494;11.768;2023-04-24T10:14:17;2.47;;;0.50;;
69542;SDS011;56762;49.494;11.768;2023-04-24T10:16:47;1.60;;;0.60;;
69542;SDS011;56762;49.494;11.768;2023-04-24T10:19:15;1.40;;;0.70;;
69542;SDS011;56762;49.494;11.768;2023-04-24T10:21:45;2.22;;;0.50;;
69542;SDS011;56762;49.494;11.768;2023-04-24T10:24:13;1.67;;;0.55;;
69542;SDS011;56762;49.494;11.768;2023-04-24T10:26:43;1.67;;;0.73;;
69542;SDS011;56762;49.494;11.768;2023-04-24T10:29:12;1.38;;;0.70;;
69542;SDS011;56762;49.494;11.768;2023-04-24T10:31:42;1.40;;;0.50;;
69542;SDS011;56762;49.494;11.768;2023-04-24T10:34:12;1.40;;;0.60;;
69542;SDS011;56762;49.494;11.768;2023-04-24T10:36:42;1.45;;;0.52;;
69542;SDS011;56762;49.494;11.768;2023-04-24T10:39:13;2.25;;;0.90;;
69542;SDS011;56762;49.494;11.768;2023-04-24T10:41:44;2.60;;;0.85;;
69542;SDS011;56762;49.494;11.768;2023-04-24T10:44:13;3.17;;;1.10;;
69542;SDS011;56762;49.494;11.768;2023-04-24T10:46:43;1.30;;;0.60;;
69542;SDS011;56762;49.494;11.768;2023-04-24T10:49:12;1.45;;;0.50;;
69542;SDS011;56762;49.494;11.768;2023-04-24T10:51:47;2.28;;;0.77;;
69542;SDS011;56762;49.494;11.768;2023-04-24T10:54:22;1.83;;;0.90;;
69542;SDS011;56762;49.494;11.768;2023-04-24T10:56:53;2.70;;;0.87;;
69542;SDS011;56762;49.494;11.768;2023-04-24T10:59:39;2.97;;;1.00;;
69542;SDS011;56762;49.494;11.768;2023-04-24T11:02:07;2.83;;;0.98;;
69542;SDS011;56762;49.494;11.768;2023-04-24T11:04:35;2.42;;;0.70;;
69542;SDS011;56762;49.494;11.768;2023-04-24T11:07:04;2.25;;;0.70;;
69542;SDS011;56762;49.494;11.768;2023-04-24T11:09:31;3.13;;;1.10;;
69542;SDS011;56762;49.494;11.768;2023-04-24T11:12:04;1.85;;;0.82;;
69542;SDS011;56762;49.494;11.768;2023-04-24T11:17:29;1.50;;;0.60;;
69542;SDS011;56762;49.494;11.768;2023-04-24T11:20:01;2.47;;;0.45;;
69542;SDS011;56762;49.494;11.768;2023-04-24T11:22:50;1.70;;;0.50;;
69542;SDS011;56762;49.494;11.768;2023-04-24T11:25:22;2.05;;;0.52;;
69542;SDS011;56762;49.494;11.768;2023-04-24T11:28:02;2.15;;;0.30;;
69542;SDS011;56762;49.494;11.768;2023-04-24T11:30:31;2.03;;;0.30;;
69542;SDS011;56762;49.494;11.768;2023-04-24T11:33:01;1.65;;;0.40;;
69542;SDS011;56762;49.494;11.768;2023-04-24T11:35:30;1.40;;;0.30;;
69542;SDS011;56762;49.494;11.768;2023-04-24T11:38:03;1.40;;;0.50;;
69542;SDS011;56762;49.494;11.768;2023-04-24T11:40:34;2.53;;;0.50;;
69542;SDS011;56762;49.494;11.768;2023-04-24T11:43:04;1.30;;;0.50;;
69542;SDS011;56762;49.494;11.768;2023-04-24T11:45:33;1.85;;;0.60;;
69542;SDS011;56762;49.494;11.768;2023-04-24T11:48:02;2.10;;;0.57;;
69542;SDS011;56762;49.494;11.768;2023-04-24T11:50:30;1.55;;;0.52;;
69542;SDS011;56762;49.494;11.768;2023-04-24T11:52:58;1.35;;;0.45;;
69542;SDS011;56762;49.494;11.768;2023-04-24T11:55:27;1.77;;;0.40;;
69542;SDS011;56762;49.494;11.768;2023-04-24T11:57:56;2.00;;;0.35;;
69542;SDS011;56762;49.494;11.768;2023-04-24T12:00:27;2.60;;;0.40;;
69542;SDS011;56762;49.494;11.768;2023-04-24T12:03:03;0.98;;;0.20;;
69542;SDS011;56762;49.494;11.768;2023-04-24T12:05:34;1.38;;;0.30;;
69542;SDS011;56762;49.494;11.768;2023-04-24T12:08:02;1.30;;;0.30;;
69542;SDS011;56762;49.494;11.768;2023-04-24T12:10:31;2.08;;;0.30;;
69542;SDS011;56762;49.494;11.768;2023-04-24T12:13:00;2.17;;;0.27;;
69542;SDS011;56762;49.494;11.768;2023-04-24T12:15:30;1.88;;;0.40;;
69542;SDS011;56762;49.494;11.768;2023-04-24T12:17:58;1.00;;;0.30;;
69542;SDS011;56762;49.494;11.768;2023-04-24T12:20:26;1.30;;;0.50;;
69542;SDS011;56762;49.494;11.768;2023-04-24T12:22:56;1.85;;;0.40;;
69542;SDS011;56762;49.494;11.768;2023-04-24T12:25:25;1.07;;;0.50;;
69542;SDS011;56762;49.494;11.768;2023-04-24T12:27:55;1.75;;;0.50;;
69542;SDS011;56762;49.494;11.768;2023-04-24T12:30:40;1.48;;;0.55;;
69542;SDS011;56762;49.494;11.768;2023-04-24T12:33:10;6.88;;;2.00;;
69542;SDS011;56762;49.494;11.768;2023-04-24T12:35:39;6.65;;;1.95;;
69542;SDS011;56762;49.494;11.768;2023-04-24T12:38:08;6.63;;;2.00;;
69542;SDS011;56762;49.494;11.768;2023-04-24T12:40:36;3.63;;;1.25;;
69542;SDS011;56762;49.494;11.768;2023-04-24T12:43:12;2.22;;;0.95;;
69542;SDS011;56762;49.494;11.768;2023-04-24T12:45:42;5.65;;;1.15;;
69542;SDS011;56762;49.494;11.768;2023-04-24T12:48:11;2.13;;;1.10;;
69542;SDS011;56762;49.494;11.768;2023-04-24T12:50:40;4.17;;;1.40;;
69542;SDS011;56762;49.494;11.768;2023-04-24T12:53:11;2.60;;;1.00;;
69542;SDS011;56762;49.494;11.768;2023-04-24T12:55:39;1.83;;;0.57;;
69542;SDS011;56762;49.494;11.768;2023-04-24T12:58:07;1.73;;;0.73;;
69542;SDS011;56762;49.494;11.768;2023-04-24T13:00:35;1.55;;;0.80;;
69542;SDS011;56762;49.494;11.768;2023-04-24T13:03:04;2.57;;;0.80;;
69542;SDS011;56762;49.494;11.768;2023-04-24T13:05:33;1.90;;;0.52;;
69542;SDS011;56762;49.494;11.768;2023-04-24T13:08:01;3.08;;;0.98;;
69542;SDS011;56762;49.494;11.768;2023-04-24T13:10:28;2.63;;;0.90;;
69542;SDS011;56762;49.494;11.768;2023-04-24T13:12:56;1.92;;;0.82;;
69542;SDS011;56762;49.494;11.768;2023-04-24T13:15:24;1.40;;;0.60;;
69542;SDS011;56762;49.494;11.768;2023-04-24T13:17:52;1.30;;;0.57;;
69542;SDS011;56762;49.494;11.768;2023-04-24T13:20:22;2.33;;;0.75;;
69542;SDS011;56762;49.494;11.768;2023-04-24T13:22:50;1.20;;;0.50;;
69542;SDS011;56762;49.494;11.768;2023-04-24T13:25:18;2.45;;;0.88;;
69542;SDS011;56762;49.494;11.768;2023-04-24T13:27:47;2.43;;;0.80;;
69542;SDS011;56762;49.494;11.768;2023-04-24T13:30:14;2.10;;;0.55;;
69542;SDS011;56762;49.494;11.768;2023-04-24T13:32:42;1.60;;;0.60;;
69542;SDS011;56762;49.494;11.768;2023-04-24T13:35:10;1.65;;;0.70;;
69542;SDS011;56762;49.494;11.768;2023-04-24T13:37:39;2.72;;;0.80;;
69542;SDS011;56762;49.494;11.768;2023-04-24T13:40:07;2.40;;;0.60;;
69542;SDS011;56762;49.494;11.768;2023-04-24T13:42:36;4.40;;;0.90;;
69542;SDS011;56762;49.494;11.768;2023-04-24T13:45:04;1.88;;;0.70;;
69542;SDS011;56762;49.494;11.768;2023-04-24T13:47:49;2.13;;;0.70;;
69542;SDS011;56762;49.494;11.768;2023-04-24T13:50:18;1.33;;;0.60;;
69542;SDS011;56762;49.494;11.768;2023-04-24T13:52:47;1.63;;;0.70;;
69542;SDS011;56762;49.494;11.768;2023-04-24T13:55:16;3.75;;;1.02;;
69542;SDS011;56762;49.494;11.768;2023-04-24T13:57:44;1.55;;;0.70;;
69542;SDS011;56762;49.494;11.768;2023-04-24T14:00:12;1.98;;;0.70;;
69542;SDS011;56762;49.494;11.768;2023-04-24T14:02:41;1.00;;;0.40;;
69542;SDS011;56762;49.494;11.768;2023-04-24T14:05:09;1.10;;;0.47;;
69542;SDS011;56762;49.494;11.768;2023-04-24T14:07:38;1.40;;;0.43;;
69542;SDS011;56762;49.494;11.768;2023-04-24T14:10:07;2.35;;;0.70;;
69542;SDS011;56762;49.494;11.768;2023-04-24T14:12:36;3.65;;;1.17;;
69542;SDS011;56762;49.494;11.768;2023-04-24T14:15:03;2.85;;;0.75;;
69542;SDS011;56762;49.494;11.768;2023-04-24T14:17:32;8.50;;;3.53;;
69542;SDS011;56762;49.494;11.768;2023-04-24T14:20:00;11.43;;;4.18;;
69542;SDS011;56762;49.494;11.768;2023-04-24T14:22:29;11.02;;;4.32;;
69542;SDS011;56762;49.494;11.768;2023-04-24T14:24:57;2.28;;;0.75;;
69542;SDS011;56762;49.494;11.768;2023-04-24T14:27:26;4.53;;;1.50;;
69542;SDS011;56762;49.494;11.768;2023-04-24T14:29:54;2.97;;;1.07;;
69542;SDS011;56762;49.494;11.768;2023-04-24T14:32:22;3.28;;;0.90;;
69542;SDS011;56762;49.494;11.768;2023-04-24T14:34:51;1.88;;;0.47;;
69542;SDS011;56762;49.494;11.768;2023-04-24T14:37:18;2.08;;;0.60;;
69542;SDS011;56762;49.494;11.768;2023-04-24T14:39:46;2.28;;;0.90;;
69542;SDS011;56762;49.494;11.768;2023-04-24T14:42:27;1.67;;;0.67;;
69542;SDS011;56762;49.494;11.768;2023-04-24T14:44:55;1.70;;;0.80;;
69542;SDS011;56762;49.494;11.768;2023-04-24T14:47:23;3.72;;;1.25;;
69542;SDS011;56762;49.494;11.768;2023-04-24T14:49:51;1.60;;;0.60;;